Weather History for KJYG - November, 2013

Change the Weather History Date:

Monday, November 4, 2013

  Actual Average Record
Temperature  
Mean Temperature 41 °F -  
Max Temperature 50 °F 45 °F 74 °F (1975)
Min Temperature 32 °F 28 °F -2 °F (1991)
Degree Days  
Heating Degree Days 24    
Moisture  
Dew Point 36 °F    
Average Humidity 73    
Maximum Humidity 93    
Minimum Humidity 58    
Precipitation  
Precipitation 0.00 in - - ()
Sea Level Pressure  
Sea Level Pressure 29.93 in    
Wind  
Wind Speed 15 mph (SSW)    
Max Wind Speed 23 mph    
Max Gust Speed 32 mph    
Visibility 10 miles    
Events Rain    
Averages and records for this station are not official NWS values.
T = Trace of Precipitation, MM = Missing Value Source: NWS Daily Summary

Daily Weather History Graph

Daily Weather History Graph

Search for Another Location

Airport or City:

Trip Planner

Search our weather history database for the weather conditions in past years. The results will help you decide how hot, cold, wet, or windy it might be!

Date:

Astronomy

Nov. 04, 2013 Rise Set
Actual Time 6:58 AM CST 5:04 PM CST
Civil Twilight 6:28 AM CST 5:34 PM CST
Nautical Twilight 5:54 AM CST 6:08 PM CST
Astronomical Twilight 5:20 AM CST 6:42 PM CST
Moon 8:12 AM CST (11/4) 6:06 PM CST (11/4)
Length of Visible Light 11h 05m
Length of Day
10h 05m
New Moon, 2% of the Moon is Illuminated
Nov 4
New Moon
Nov 9
First Quarter
Nov 17
Full
Nov 25
Last Quarter
Dec 2
New

Hourly Weather History & Observations

Time (CST) Temp. Windchill Dew Point Humidity Pressure Visibility Wind Dir Wind Speed Gust Speed Precip Events Conditions
12:15 AM 48.2 °F - 33.8 °F 58% 29.82 in 10.0 mi SSE 23.0 mph 28.8 mph N/A   Clear
12:35 AM 48.2 °F - 33.8 °F 58% 29.82 in 10.0 mi SE 19.6 mph - N/A   Clear
12:55 AM 48.2 °F - 33.8 °F 58% 29.81 in 10.0 mi SSE 19.6 mph 24.2 mph N/A   Clear
1:15 AM 46.4 °F 39.0 °F 33.8 °F 62% 29.81 in 10.0 mi SE 19.6 mph 27.6 mph N/A   Clear
1:35 AM 46.4 °F 39.2 °F 35.6 °F 66% 29.81 in 10.0 mi SE 18.4 mph 23.0 mph N/A   Clear
1:55 AM 48.2 °F - 35.6 °F 62% 29.81 in 10.0 mi SSE 17.3 mph 25.3 mph N/A   Mostly Cloudy
2:14 AM 48.2 °F - 35.6 °F 62% 29.80 in 10.0 mi SE 18.4 mph 25.3 mph N/A   Scattered Clouds
2:35 AM 46.4 °F 39.5 °F 35.6 °F 66% 29.80 in 10.0 mi SSE 17.3 mph 26.5 mph N/A   Clear
2:55 AM 46.4 °F 39.5 °F 35.6 °F 66% 29.80 in 10.0 mi SSE 17.3 mph 23.0 mph N/A   Clear
3:15 AM 46.4 °F 39.8 °F 35.6 °F 66% 29.80 in 10.0 mi SE 16.1 mph 23.0 mph N/A   Clear
3:35 AM 46.4 °F 39.5 °F 35.6 °F 66% 29.80 in 10.0 mi SSE 17.3 mph 23.0 mph N/A   Clear
3:55 AM 46.4 °F 39.2 °F 35.6 °F 66% 29.80 in 10.0 mi SSE 18.4 mph 23.0 mph N/A   Clear
4:15 AM 46.4 °F 39.5 °F 35.6 °F 66% 29.80 in 10.0 mi SSE 17.3 mph 23.0 mph N/A   Clear
4:35 AM 46.4 °F 39.2 °F 35.6 °F 66% 29.80 in 10.0 mi SSE 18.4 mph 24.2 mph N/A   Clear
4:55 AM 46.4 °F 39.5 °F 35.6 °F 66% 29.80 in 10.0 mi SSE 17.3 mph - N/A   Clear
5:15 AM 46.4 °F 39.5 °F 35.6 °F 66% 29.79 in 10.0 mi SSE 17.3 mph 23.0 mph N/A   Clear
5:35 AM 46.4 °F 40.1 °F 37.4 °F 71% 29.80 in 10.0 mi SSE 15.0 mph - N/A   Clear
5:55 AM 46.4 °F 39.5 °F 37.4 °F 71% 29.79 in 10.0 mi SSE 17.3 mph - N/A   Clear
6:14 AM 46.4 °F 40.1 °F 37.4 °F 71% 29.79 in 10.0 mi SSE 15.0 mph 23.0 mph N/A   Clear
6:35 AM 46.4 °F 40.1 °F 37.4 °F 71% 29.79 in 10.0 mi SSE 15.0 mph - N/A   Clear
6:55 AM 48.2 °F - 37.4 °F 66% 29.79 in 10.0 mi SSE 21.9 mph 27.6 mph N/A   Mostly Cloudy
7:14 AM 48.2 °F - 39.2 °F 71% 29.80 in 10.0 mi SSE 21.9 mph 32.2 mph N/A   Overcast
7:35 AM 48.2 °F - 39.2 °F 71% 29.81 in 10.0 mi SSE 18.4 mph - N/A   Overcast
7:55 AM 48.2 °F - 39.2 °F 71% 29.81 in 10.0 mi SSE 17.3 mph - N/A   Overcast
8:14 AM 48.2 °F - 39.2 °F 71% 29.83 in 10.0 mi SSE 12.7 mph 21.9 mph N/A   Overcast
8:35 AM 48.2 °F - 39.2 °F 71% 29.83 in 10.0 mi SSE 15.0 mph - N/A   Overcast
8:55 AM 48.2 °F - 39.2 °F 71% 29.82 in 10.0 mi SSE 18.4 mph 21.9 mph N/A   Overcast
9:14 AM 48.2 °F - 39.2 °F 71% 29.82 in 10.0 mi South 15.0 mph - N/A   Overcast
9:35 AM 48.2 °F - 42.8 °F 82% 29.83 in 10.0 mi South 19.6 mph 23.0 mph N/A Rain Rain
9:55 AM 46.4 °F 39.2 °F 42.8 °F 87% 29.85 in 4.0 mi South 18.4 mph - N/A Rain Rain
10:15 AM 46.4 °F 40.7 °F 42.8 °F 87% 29.87 in 7.0 mi South 12.7 mph 18.4 mph N/A Rain Rain
10:35 AM 46.4 °F 41.5 °F 44.6 °F 93% 29.87 in 7.0 mi SSW 10.4 mph 18.4 mph N/A Rain Light Rain
10:55 AM 46.4 °F 39.2 °F 44.6 °F 93% 29.88 in 10.0 mi WSW 18.4 mph - N/A Rain Rain
11:15 AM 44.6 °F 37.4 °F 39.2 °F 81% 29.90 in 10.0 mi West 16.1 mph 25.3 mph N/A   Overcast
11:35 AM 44.6 °F 38.4 °F 39.2 °F 81% 29.91 in 10.0 mi West 12.7 mph - N/A   Overcast
11:54 AM 44.6 °F 37.2 °F 39.2 °F 81% 29.91 in 10.0 mi WNW 17.3 mph 24.2 mph N/A   Mostly Cloudy
12:15 PM 46.4 °F 39.2 °F 39.2 °F 76% 29.91 in 10.0 mi NW 18.4 mph 24.2 mph N/A   Scattered Clouds
12:35 PM 48.2 °F - 39.2 °F 71% 29.91 in 10.0 mi WNW 16.1 mph 20.7 mph N/A   Scattered Clouds
12:55 PM 48.2 °F - 39.2 °F 71% 29.91 in 10.0 mi WNW 12.7 mph - N/A   Scattered Clouds
1:15 PM 48.2 °F - 39.2 °F 71% 29.92 in 10.0 mi WNW 12.7 mph 17.3 mph N/A   Mostly Cloudy
1:35 PM 50.0 °F - 39.2 °F 66% 29.93 in 10.0 mi West 10.4 mph - N/A   Mostly Cloudy
1:55 PM 48.2 °F - 39.2 °F 71% 29.94 in 10.0 mi West 10.4 mph - N/A   Overcast
2:15 PM 48.2 °F - 37.4 °F 66% 29.95 in 10.0 mi WNW 10.4 mph - N/A   Overcast
2:35 PM 48.2 °F - 37.4 °F 66% 29.95 in 10.0 mi West 9.2 mph - N/A   Mostly Cloudy
2:55 PM 50.0 °F - 39.2 °F 66% 29.96 in 10.0 mi West 5.8 mph - N/A   Mostly Cloudy
3:14 PM 50.0 °F - 37.4 °F 62% 29.96 in 10.0 mi West 6.9 mph - N/A   Mostly Cloudy
3:35 PM 50.0 °F - 39.2 °F 66% 29.98 in 10.0 mi WSW 5.8 mph - N/A   Mostly Cloudy
3:55 PM 48.2 °F - 39.2 °F 71% 29.99 in 10.0 mi Calm Calm - N/A   Scattered Clouds
4:14 PM 48.2 °F - 39.2 °F 71% 30.00 in 10.0 mi West 6.9 mph - N/A   Scattered Clouds
4:35 PM 48.2 °F - 37.4 °F 66% 30.00 in 10.0 mi West 8.1 mph - N/A   Clear
4:55 PM 46.4 °F 43.5 °F 37.4 °F 71% 30.00 in 10.0 mi West 5.8 mph - N/A   Clear
5:14 PM 44.6 °F 43.1 °F 35.6 °F 71% 30.01 in 10.0 mi West 3.5 mph - N/A   Clear
5:35 PM 44.6 °F - 35.6 °F 71% 30.02 in 10.0 mi Calm Calm - N/A   Clear
5:55 PM 42.8 °F 39.3 °F 35.6 °F 76% 30.04 in 10.0 mi SW 5.8 mph - N/A   Clear
6:14 PM 39.2 °F 37.0 °F 33.8 °F 81% 30.04 in 10.0 mi SSW 3.5 mph - N/A   Clear
6:35 PM 39.2 °F 35.9 °F 35.6 °F 87% 30.05 in 10.0 mi South 4.6 mph - N/A   Clear
6:55 PM 39.2 °F 35.0 °F 33.8 °F 81% 30.06 in 10.0 mi WSW 5.8 mph - N/A   Clear
7:14 PM 37.4 °F 32.1 °F 32.0 °F 81% 30.07 in 10.0 mi WSW 6.9 mph - N/A   Clear
7:35 PM 39.2 °F 35.0 °F 32.0 °F 75% 30.08 in 10.0 mi SW 5.8 mph - N/A   Clear
7:55 PM 35.6 °F 29.2 °F 30.2 °F 81% 30.09 in 10.0 mi West 8.1 mph - N/A   Clear
8:14 PM 37.4 °F 32.1 °F 30.2 °F 75% 30.09 in 10.0 mi WSW 6.9 mph - N/A   Clear
8:35 PM 35.6 °F 30.7 °F 30.2 °F 81% 30.10 in 10.0 mi WSW 5.8 mph - N/A   Clear
8:55 PM 35.6 °F 31.7 °F 28.4 °F 75% 30.11 in 10.0 mi SW 4.6 mph - N/A   Clear
9:15 PM 35.6 °F 30.7 °F 30.2 °F 81% 30.13 in 10.0 mi South 5.8 mph - N/A   Clear
9:35 PM 35.6 °F 30.7 °F 30.2 °F 81% 30.13 in 10.0 mi SSW 5.8 mph - N/A   Clear
9:55 PM 35.6 °F 29.9 °F 28.4 °F 75% 30.14 in 10.0 mi South 6.9 mph - N/A   Clear
10:15 PM 37.4 °F 33.8 °F 28.4 °F 70% 30.15 in 10.0 mi SSW 4.6 mph - N/A   Clear
10:35 PM 33.8 °F 30.8 °F 28.4 °F 81% 30.15 in 10.0 mi South 3.5 mph - N/A   Clear
10:55 PM 33.8 °F 29.6 °F 28.4 °F 81% 30.16 in 10.0 mi SSW 4.6 mph - N/A   Clear
11:15 PM 33.8 °F 28.6 °F 28.4 °F 81% 30.16 in 10.0 mi SSW 5.8 mph - N/A   Clear
11:35 PM 32.0 °F - 28.4 °F 87% 30.17 in 10.0 mi Calm Calm - N/A   Clear
11:54 PM 32.0 °F 28.7 °F 28.4 °F 87% 30.17 in 10.0 mi SSW 3.5 mph - N/A   Clear